sensor_id;sensor_type;location;lat;lon;timestamp;P1;durP1;ratioP1;P2;durP2;ratioP2
19747;SDS011;10032;51.386;12.516;2022-09-09T00:00:26;2.30;;;2.13;;
19747;SDS011;10032;51.386;12.516;2022-09-09T00:05:38;2.03;;;1.83;;
19747;SDS011;10032;51.386;12.516;2022-09-09T00:08:21;3.05;;;1.95;;
19747;SDS011;10032;51.386;12.516;2022-09-09T00:10:58;2.05;;;1.75;;
19747;SDS011;10032;51.386;12.516;2022-09-09T00:16:15;2.53;;;2.20;;
19747;SDS011;10032;51.386;12.516;2022-09-09T00:21:35;2.38;;;1.83;;
19747;SDS011;10032;51.386;12.516;2022-09-09T00:24:16;2.28;;;1.88;;
19747;SDS011;10032;51.386;12.516;2022-09-09T00:26:53;2.50;;;2.00;;
19747;SDS011;10032;51.386;12.516;2022-09-09T00:29:28;2.88;;;2.58;;
19747;SDS011;10032;51.386;12.516;2022-09-09T00:32:13;2.10;;;2.00;;
19747;SDS011;10032;51.386;12.516;2022-09-09T00:34:54;3.67;;;1.92;;
19747;SDS011;10032;51.386;12.516;2022-09-09T00:37:24;2.10;;;1.90;;
19747;SDS011;10032;51.386;12.516;2022-09-09T00:39:51;2.22;;;1.90;;
19747;SDS011;10032;51.386;12.516;2022-09-09T00:45:16;1.95;;;1.80;;
19747;SDS011;10032;51.386;12.516;2022-09-09T00:47:50;3.40;;;1.80;;
19747;SDS011;10032;51.386;12.516;2022-09-09T00:56:26;2.03;;;1.90;;
19747;SDS011;10032;51.386;12.516;2022-09-09T00:59:00;4.07;;;2.20;;
19747;SDS011;10032;51.386;12.516;2022-09-09T01:01:37;5.05;;;2.10;;
19747;SDS011;10032;51.386;12.516;2022-09-09T01:04:05;2.38;;;2.08;;
19747;SDS011;10032;51.386;12.516;2022-09-09T01:06:36;3.70;;;2.33;;
19747;SDS011;10032;51.386;12.516;2022-09-09T01:17:00;2.35;;;2.15;;
19747;SDS011;10032;51.386;12.516;2022-09-09T01:25:15;2.67;;;2.20;;
19747;SDS011;10032;51.386;12.516;2022-09-09T01:27:52;2.03;;;1.80;;
19747;SDS011;10032;51.386;12.516;2022-09-09T01:30:21;5.82;;;2.47;;
19747;SDS011;10032;51.386;12.516;2022-09-09T01:32:52;2.50;;;1.95;;
19747;SDS011;10032;51.386;12.516;2022-09-09T01:35:31;2.83;;;2.05;;
19747;SDS011;10032;51.386;12.516;2022-09-09T01:38:07;2.72;;;2.05;;
19747;SDS011;10032;51.386;12.516;2022-09-09T01:40:35;4.05;;;1.80;;
19747;SDS011;10032;51.386;12.516;2022-09-09T01:43:01;3.28;;;2.08;;
19747;SDS011;10032;51.386;12.516;2022-09-09T01:45:27;3.00;;;1.83;;
19747;SDS011;10032;51.386;12.516;2022-09-09T01:47:53;3.05;;;2.00;;
19747;SDS011;10032;51.386;12.516;2022-09-09T01:50:19;2.60;;;1.70;;
19747;SDS011;10032;51.386;12.516;2022-09-09T01:52:46;2.92;;;1.95;;
19747;SDS011;10032;51.386;12.516;2022-09-09T01:55:15;4.45;;;1.95;;
19747;SDS011;10032;51.386;12.516;2022-09-09T02:00:34;3.08;;;2.17;;
19747;SDS011;10032;51.386;12.516;2022-09-09T02:03:16;2.20;;;2.00;;
19747;SDS011;10032;51.386;12.516;2022-09-09T02:08:29;3.58;;;2.22;;
19747;SDS011;10032;51.386;12.516;2022-09-09T02:11:13;2.00;;;1.77;;
19747;SDS011;10032;51.386;12.516;2022-09-09T02:13:44;2.83;;;2.17;;
19747;SDS011;10032;51.386;12.516;2022-09-09T02:16:18;3.10;;;2.83;;
19747;SDS011;10032;51.386;12.516;2022-09-09T02:18:52;2.88;;;2.00;;
19747;SDS011;10032;51.386;12.516;2022-09-09T02:21:23;2.60;;;2.28;;
19747;SDS011;10032;51.386;12.516;2022-09-09T02:23:53;2.15;;;2.05;;
19747;SDS011;10032;51.386;12.516;2022-09-09T02:26:21;2.55;;;2.00;;
19747;SDS011;10032;51.386;12.516;2022-09-09T02:28:48;2.20;;;2.00;;
19747;SDS011;10032;51.386;12.516;2022-09-09T02:31:16;2.55;;;2.10;;
19747;SDS011;10032;51.386;12.516;2022-09-09T02:33:46;2.65;;;1.98;;
19747;SDS011;10032;51.386;12.516;2022-09-09T02:36:17;2.40;;;2.10;;
19747;SDS011;10032;51.386;12.516;2022-09-09T02:38:45;3.17;;;1.90;;
19747;SDS011;10032;51.386;12.516;2022-09-09T02:41:16;2.20;;;1.85;;
19747;SDS011;10032;51.386;12.516;2022-09-09T02:43:45;2.28;;;2.00;;
19747;SDS011;10032;51.386;12.516;2022-09-09T02:49:02;3.17;;;1.98;;
19747;SDS011;10032;51.386;12.516;2022-09-09T02:54:31;2.72;;;1.85;;
19747;SDS011;10032;51.386;12.516;2022-09-09T02:57:04;5.07;;;2.20;;
19747;SDS011;10032;51.386;12.516;2022-09-09T02:59:33;2.20;;;1.90;;
19747;SDS011;10032;51.386;12.516;2022-09-09T03:01:59;2.80;;;2.00;;
19747;SDS011;10032;51.386;12.516;2022-09-09T03:04:25;1.90;;;1.80;;
19747;SDS011;10032;51.386;12.516;2022-09-09T03:06:50;2.55;;;1.80;;
19747;SDS011;10032;51.386;12.516;2022-09-09T03:09:15;2.47;;;2.05;;
19747;SDS011;10032;51.386;12.516;2022-09-09T03:11:41;2.75;;;1.98;;
19747;SDS011;10032;51.386;12.516;2022-09-09T03:14:06;2.13;;;1.90;;
19747;SDS011;10032;51.386;12.516;2022-09-09T03:16:33;2.58;;;2.00;;
19747;SDS011;10032;51.386;12.516;2022-09-09T03:18:59;4.50;;;2.20;;
19747;SDS011;10032;51.386;12.516;2022-09-09T03:21:25;1.92;;;1.73;;
19747;SDS011;10032;51.386;12.516;2022-09-09T03:23:51;2.22;;;1.80;;
19747;SDS011;10032;51.386;12.516;2022-09-09T03:26:16;4.35;;;2.00;;
19747;SDS011;10032;51.386;12.516;2022-09-09T03:28:42;3.33;;;2.13;;
19747;SDS011;10032;51.386;12.516;2022-09-09T03:31:07;2.10;;;1.85;;
19747;SDS011;10032;51.386;12.516;2022-09-09T03:33:35;2.00;;;1.90;;
19747;SDS011;10032;51.386;12.516;2022-09-09T03:36:06;1.80;;;1.70;;
19747;SDS011;10032;51.386;12.516;2022-09-09T03:38:32;3.10;;;1.88;;
19747;SDS011;10032;51.386;12.516;2022-09-09T03:40:58;4.50;;;1.90;;
19747;SDS011;10032;51.386;12.516;2022-09-09T03:43:25;2.17;;;2.03;;
19747;SDS011;10032;51.386;12.516;2022-09-09T03:45:51;4.22;;;2.05;;
19747;SDS011;10032;51.386;12.516;2022-09-09T03:48:17;3.58;;;2.33;;
19747;SDS011;10032;51.386;12.516;2022-09-09T03:50:45;2.92;;;1.90;;
19747;SDS011;10032;51.386;12.516;2022-09-09T03:53:14;1.67;;;1.58;;
19747;SDS011;10032;51.386;12.516;2022-09-09T03:55:45;2.38;;;1.92;;
19747;SDS011;10032;51.386;12.516;2022-09-09T03:58:12;1.95;;;1.73;;
19747;SDS011;10032;51.386;12.516;2022-09-09T04:00:39;2.88;;;1.75;;
19747;SDS011;10032;51.386;12.516;2022-09-09T04:03:09;3.88;;;2.30;;
19747;SDS011;10032;51.386;12.516;2022-09-09T04:05:35;3.70;;;2.20;;
19747;SDS011;10032;51.386;12.516;2022-09-09T04:08:04;4.22;;;2.25;;
19747;SDS011;10032;51.386;12.516;2022-09-09T04:10:30;2.22;;;1.88;;
19747;SDS011;10032;51.386;12.516;2022-09-09T04:12:56;3.60;;;1.77;;
19747;SDS011;10032;51.386;12.516;2022-09-09T04:15:22;6.55;;;2.17;;
19747;SDS011;10032;51.386;12.516;2022-09-09T04:17:47;4.00;;;2.57;;
19747;SDS011;10032;51.386;12.516;2022-09-09T04:20:12;1.88;;;1.73;;
19747;SDS011;10032;51.386;12.516;2022-09-09T04:22:37;3.27;;;2.10;;
19747;SDS011;10032;51.386;12.516;2022-09-09T04:25:04;2.67;;;1.80;;
19747;SDS011;10032;51.386;12.516;2022-09-09T04:27:30;5.28;;;2.00;;
19747;SDS011;10032;51.386;12.516;2022-09-09T04:29:56;2.60;;;2.40;;
19747;SDS011;10032;51.386;12.516;2022-09-09T04:32:22;1.73;;;1.58;;
19747;SDS011;10032;51.386;12.516;2022-09-09T04:34:48;4.37;;;2.97;;
19747;SDS011;10032;51.386;12.516;2022-09-09T04:37:13;2.47;;;2.03;;
19747;SDS011;10032;51.386;12.516;2022-09-09T04:39:39;2.80;;;1.93;;
19747;SDS011;10032;51.386;12.516;2022-09-09T04:42:04;3.03;;;1.90;;
19747;SDS011;10032;51.386;12.516;2022-09-09T04:44:30;2.70;;;1.73;;
19747;SDS011;10032;51.386;12.516;2022-09-09T04:46:55;2.87;;;2.03;;
19747;SDS011;10032;51.386;12.516;2022-09-09T04:49:21;1.55;;;1.45;;
19747;SDS011;10032;51.386;12.516;2022-09-09T04:51:48;2.37;;;1.90;;
19747;SDS011;10032;51.386;12.516;2022-09-09T04:54:14;3.93;;;2.00;;
19747;SDS011;10032;51.386;12.516;2022-09-09T04:56:39;2.03;;;1.57;;
19747;SDS011;10032;51.386;12.516;2022-09-09T04:59:07;3.10;;;1.70;;
19747;SDS011;10032;51.386;12.516;2022-09-09T05:01:32;2.33;;;1.93;;
19747;SDS011;10032;51.386;12.516;2022-09-09T05:03:58;2.92;;;1.80;;
19747;SDS011;10032;51.386;12.516;2022-09-09T05:06:24;2.65;;;1.80;;
19747;SDS011;10032;51.386;12.516;2022-09-09T05:08:50;2.13;;;1.93;;
19747;SDS011;10032;51.386;12.516;2022-09-09T05:11:20;5.85;;;1.92;;
19747;SDS011;10032;51.386;12.516;2022-09-09T05:13:49;3.10;;;1.80;;
19747;SDS011;10032;51.386;12.516;2022-09-09T05:16:15;1.80;;;1.58;;
19747;SDS011;10032;51.386;12.516;2022-09-09T05:18:42;3.83;;;2.22;;
19747;SDS011;10032;51.386;12.516;2022-09-09T05:21:08;1.55;;;1.42;;
19747;SDS011;10032;51.386;12.516;2022-09-09T05:23:34;1.48;;;1.38;;
19747;SDS011;10032;51.386;12.516;2022-09-09T05:26:00;3.60;;;2.08;;
19747;SDS011;10032;51.386;12.516;2022-09-09T05:28:26;2.90;;;1.77;;
19747;SDS011;10032;51.386;12.516;2022-09-09T05:31:02;1.50;;;1.40;;
19747;SDS011;10032;51.386;12.516;2022-09-09T05:33:30;2.20;;;1.60;;
19747;SDS011;10032;51.386;12.516;2022-09-09T05:35:57;2.25;;;1.60;;
19747;SDS011;10032;51.386;12.516;2022-09-09T05:38:28;2.42;;;1.65;;
19747;SDS011;10032;51.386;12.516;2022-09-09T05:40:54;2.23;;;1.80;;
19747;SDS011;10032;51.386;12.516;2022-09-09T05:43:21;1.85;;;1.50;;
19747;SDS011;10032;51.386;12.516;2022-09-09T05:45:47;3.03;;;2.03;;
19747;SDS011;10032;51.386;12.516;2022-09-09T05:48:14;2.97;;;1.38;;
19747;SDS011;10032;51.386;12.516;2022-09-09T05:50:41;1.55;;;1.40;;
19747;SDS011;10032;51.386;12.516;2022-09-09T05:53:07;4.28;;;1.58;;
19747;SDS011;10032;51.386;12.516;2022-09-09T05:55:33;2.50;;;1.73;;
19747;SDS011;10032;51.386;12.516;2022-09-09T05:57:58;1.40;;;1.30;;
19747;SDS011;10032;51.386;12.516;2022-09-09T06:00:24;1.90;;;1.67;;
19747;SDS011;10032;51.386;12.516;2022-09-09T06:02:51;2.55;;;1.60;;
19747;SDS011;10032;51.386;12.516;2022-09-09T06:05:17;4.78;;;1.58;;
19747;SDS011;10032;51.386;12.516;2022-09-09T06:07:43;2.30;;;1.45;;
19747;SDS011;10032;51.386;12.516;2022-09-09T06:10:09;3.17;;;1.70;;
19747;SDS011;10032;51.386;12.516;2022-09-09T06:12:35;2.85;;;1.77;;
19747;SDS011;10032;51.386;12.516;2022-09-09T06:15:01;2.28;;;1.50;;
19747;SDS011;10032;51.386;12.516;2022-09-09T06:17:26;1.50;;;1.40;;
19747;SDS011;10032;51.386;12.516;2022-09-09T06:19:52;2.70;;;1.88;;
19747;SDS011;10032;51.386;12.516;2022-09-09T06:22:17;2.63;;;1.98;;
19747;SDS011;10032;51.386;12.516;2022-09-09T06:24:42;2.13;;;1.42;;
19747;SDS011;10032;51.386;12.516;2022-09-09T06:27:09;3.08;;;1.65;;
19747;SDS011;10032;51.386;12.516;2022-09-09T06:29:35;2.53;;;1.33;;
19747;SDS011;10032;51.386;12.516;2022-09-09T06:32:01;1.60;;;1.50;;
19747;SDS011;10032;51.386;12.516;2022-09-09T06:34:28;2.15;;;1.65;;
19747;SDS011;10032;51.386;12.516;2022-09-09T06:36:53;3.13;;;1.88;;
19747;SDS011;10032;51.386;12.516;2022-09-09T06:39:19;1.45;;;1.35;;
19747;SDS011;10032;51.386;12.516;2022-09-09T06:41:44;1.83;;;1.17;;
19747;SDS011;10032;51.386;12.516;2022-09-09T06:44:09;1.98;;;1.38;;
19747;SDS011;10032;51.386;12.516;2022-09-09T06:46:36;3.17;;;1.58;;
19747;SDS011;10032;51.386;12.516;2022-09-09T06:49:03;3.45;;;1.48;;
19747;SDS011;10032;51.386;12.516;2022-09-09T06:51:33;3.45;;;1.35;;
19747;SDS011;10032;51.386;12.516;2022-09-09T06:54:00;2.80;;;1.50;;
19747;SDS011;10032;51.386;12.516;2022-09-09T06:56:31;5.22;;;1.55;;
19747;SDS011;10032;51.386;12.516;2022-09-09T06:58:58;3.13;;;1.90;;
19747;SDS011;10032;51.386;12.516;2022-09-09T07:01:29;3.15;;;1.67;;
19747;SDS011;10032;51.386;12.516;2022-09-09T07:03:57;2.85;;;1.60;;
19747;SDS011;10032;51.386;12.516;2022-09-09T07:06:40;3.80;;;1.58;;
19747;SDS011;10032;51.386;12.516;2022-09-09T07:09:09;3.22;;;1.60;;
19747;SDS011;10032;51.386;12.516;2022-09-09T07:14:04;1.33;;;1.20;;
19747;SDS011;10032;51.386;12.516;2022-09-09T07:16:30;2.90;;;1.15;;
19747;SDS011;10032;51.386;12.516;2022-09-09T07:18:58;3.17;;;1.67;;
19747;SDS011;10032;51.386;12.516;2022-09-09T07:21:26;1.48;;;1.38;;
19747;SDS011;10032;51.386;12.516;2022-09-09T07:23:52;3.72;;;1.80;;
19747;SDS011;10032;51.386;12.516;2022-09-09T07:26:19;2.38;;;1.60;;
19747;SDS011;10032;51.386;12.516;2022-09-09T07:28:47;2.63;;;1.65;;
19747;SDS011;10032;51.386;12.516;2022-09-09T07:31:16;2.28;;;1.40;;
19747;SDS011;10032;51.386;12.516;2022-09-09T07:33:49;2.88;;;1.45;;
19747;SDS011;10032;51.386;12.516;2022-09-09T07:38:46;2.47;;;1.27;;
19747;SDS011;10032;51.386;12.516;2022-09-09T07:41:21;1.95;;;1.23;;
19747;SDS011;10032;51.386;12.516;2022-09-09T07:43:51;2.75;;;1.52;;
19747;SDS011;10032;51.386;12.516;2022-09-09T07:46:19;3.20;;;1.55;;
19747;SDS011;10032;51.386;12.516;2022-09-09T07:48:46;2.70;;;1.10;;
19747;SDS011;10032;51.386;12.516;2022-09-09T07:51:18;1.38;;;1.27;;
19747;SDS011;10032;51.386;12.516;2022-09-09T07:53:47;1.83;;;1.15;;
19747;SDS011;10032;51.386;12.516;2022-09-09T07:56:15;2.17;;;1.17;;
19747;SDS011;10032;51.386;12.516;2022-09-09T07:58:42;2.55;;;1.08;;
19747;SDS011;10032;51.386;12.516;2022-09-09T08:01:11;5.18;;;1.35;;
19747;SDS011;10032;51.386;12.516;2022-09-09T08:03:39;3.35;;;1.40;;
19747;SDS011;10032;51.386;12.516;2022-09-09T08:06:06;3.25;;;1.40;;
19747;SDS011;10032;51.386;12.516;2022-09-09T08:08:33;3.25;;;1.30;;
19747;SDS011;10032;51.386;12.516;2022-09-09T08:11:07;1.60;;;1.17;;
19747;SDS011;10032;51.386;12.516;2022-09-09T08:13:36;1.58;;;1.40;;
19747;SDS011;10032;51.386;12.516;2022-09-09T08:16:09;2.03;;;1.30;;
19747;SDS011;10032;51.386;12.516;2022-09-09T08:18:38;1.33;;;1.23;;
19747;SDS011;10032;51.386;12.516;2022-09-09T08:21:14;1.63;;;1.25;;
19747;SDS011;10032;51.386;12.516;2022-09-09T08:23:43;1.77;;;1.38;;
19747;SDS011;10032;51.386;12.516;2022-09-09T08:26:17;2.05;;;1.02;;
19747;SDS011;10032;51.386;12.516;2022-09-09T08:28:47;3.67;;;1.00;;
19747;SDS011;10032;51.386;12.516;2022-09-09T08:31:17;2.72;;;1.25;;
19747;SDS011;10032;51.386;12.516;2022-09-09T08:33:44;2.40;;;1.38;;
19747;SDS011;10032;51.386;12.516;2022-09-09T08:36:18;3.63;;;1.40;;
19747;SDS011;10032;51.386;12.516;2022-09-09T08:38:48;2.60;;;1.17;;
19747;SDS011;10032;51.386;12.516;2022-09-09T08:44:27;4.38;;;1.38;;
19747;SDS011;10032;51.386;12.516;2022-09-09T08:47:17;2.47;;;1.13;;
19747;SDS011;10032;51.386;12.516;2022-09-09T08:50:13;1.65;;;1.02;;
19747;SDS011;10032;51.386;12.516;2022-09-09T08:55:37;1.75;;;1.08;;
19747;SDS011;10032;51.386;12.516;2022-09-09T08:58:15;1.42;;;1.00;;
19747;SDS011;10032;51.386;12.516;2022-09-09T09:11:26;2.28;;;1.58;;
19747;SDS011;10032;51.386;12.516;2022-09-09T09:19:34;2.95;;;1.23;;
19747;SDS011;10032;51.386;12.516;2022-09-09T09:27:15;2.72;;;0.80;;
19747;SDS011;10032;51.386;12.516;2022-09-09T09:29:46;2.25;;;1.30;;
19747;SDS011;10032;51.386;12.516;2022-09-09T09:32:16;2.85;;;1.30;;
19747;SDS011;10032;51.386;12.516;2022-09-09T09:34:51;3.35;;;0.95;;
19747;SDS011;10032;51.386;12.516;2022-09-09T09:37:33;3.63;;;0.98;;
19747;SDS011;10032;51.386;12.516;2022-09-09T09:40:13;1.75;;;1.35;;
19747;SDS011;10032;51.386;12.516;2022-09-09T09:42:51;3.53;;;1.00;;
19747;SDS011;10032;51.386;12.516;2022-09-09T09:48:04;1.35;;;1.13;;
19747;SDS011;10032;51.386;12.516;2022-09-09T09:50:32;1.58;;;0.95;;
19747;SDS011;10032;51.386;12.516;2022-09-09T09:53:02;1.35;;;0.98;;
19747;SDS011;10032;51.386;12.516;2022-09-09T09:55:30;2.25;;;1.13;;
19747;SDS011;10032;51.386;12.516;2022-09-09T09:58:04;2.33;;;1.23;;
19747;SDS011;10032;51.386;12.516;2022-09-09T10:00:31;1.15;;;0.90;;
19747;SDS011;10032;51.386;12.516;2022-09-09T10:03:00;2.20;;;1.33;;
19747;SDS011;10032;51.386;12.516;2022-09-09T10:05:26;3.50;;;1.30;;
19747;SDS011;10032;51.386;12.516;2022-09-09T10:21:14;2.85;;;1.13;;
19747;SDS011;10032;51.386;12.516;2022-09-09T10:29:35;3.75;;;0.90;;
19747;SDS011;10032;51.386;12.516;2022-09-09T10:37:21;2.05;;;0.85;;
19747;SDS011;10032;51.386;12.516;2022-09-09T10:39:50;1.75;;;0.88;;
19747;SDS011;10032;51.386;12.516;2022-09-09T10:42:26;1.48;;;0.98;;
19747;SDS011;10032;51.386;12.516;2022-09-09T10:50:50;1.05;;;0.90;;
19747;SDS011;10032;51.386;12.516;2022-09-09T10:55:53;2.63;;;1.10;;
19747;SDS011;10032;51.386;12.516;2022-09-09T11:01:17;3.33;;;1.10;;
19747;SDS011;10032;51.386;12.516;2022-09-09T11:03:48;5.15;;;1.40;;
19747;SDS011;10032;51.386;12.516;2022-09-09T11:06:20;3.63;;;1.35;;
19747;SDS011;10032;51.386;12.516;2022-09-09T11:08:48;3.80;;;2.05;;
19747;SDS011;10032;51.386;12.516;2022-09-09T11:11:29;2.22;;;0.88;;
19747;SDS011;10032;51.386;12.516;2022-09-09T11:14:15;1.05;;;0.80;;
19747;SDS011;10032;51.386;12.516;2022-09-09T11:16:50;1.77;;;1.00;;
19747;SDS011;10032;51.386;12.516;2022-09-09T11:19:27;1.63;;;1.50;;
19747;SDS011;10032;51.386;12.516;2022-09-09T11:22:05;1.90;;;0.95;;
19747;SDS011;10032;51.386;12.516;2022-09-09T11:24:41;2.22;;;1.05;;
19747;SDS011;10032;51.386;12.516;2022-09-09T11:33:22;1.33;;;1.13;;
19747;SDS011;10032;51.386;12.516;2022-09-09T11:42:15;2.22;;;0.90;;
19747;SDS011;10032;51.386;12.516;2022-09-09T11:44:43;2.00;;;1.23;;
19747;SDS011;10032;51.386;12.516;2022-09-09T11:47:23;2.05;;;1.00;;
19747;SDS011;10032;51.386;12.516;2022-09-09T11:49:51;1.67;;;1.10;;
19747;SDS011;10032;51.386;12.516;2022-09-09T11:52:22;2.75;;;1.10;;
19747;SDS011;10032;51.386;12.516;2022-09-09T11:54:51;1.30;;;0.88;;
19747;SDS011;10032;51.386;12.516;2022-09-09T11:57:31;3.05;;;1.10;;
19747;SDS011;10032;51.386;12.516;2022-09-09T11:59:59;1.88;;;1.40;;
19747;SDS011;10032;51.386;12.516;2022-09-09T12:02:26;3.33;;;1.10;;
19747;SDS011;10032;51.386;12.516;2022-09-09T12:05:04;2.92;;;1.20;;
19747;SDS011;10032;51.386;12.516;2022-09-09T12:07:49;3.58;;;1.10;;
19747;SDS011;10032;51.386;12.516;2022-09-09T12:10:30;4.20;;;0.98;;
19747;SDS011;10032;51.386;12.516;2022-09-09T12:23:57;3.35;;;1.20;;
19747;SDS011;10032;51.386;12.516;2022-09-09T12:26:34;3.03;;;1.10;;
19747;SDS011;10032;51.386;12.516;2022-09-09T12:29:11;1.90;;;0.88;;
19747;SDS011;10032;51.386;12.516;2022-09-09T12:31:46;3.00;;;1.38;;
19747;SDS011;10032;51.386;12.516;2022-09-09T12:34:49;2.83;;;1.05;;
19747;SDS011;10032;51.386;12.516;2022-09-09T12:40:04;2.67;;;1.27;;
19747;SDS011;10032;51.386;12.516;2022-09-09T12:42:50;1.90;;;1.27;;
19747;SDS011;10032;51.386;12.516;2022-09-09T12:45:17;1.80;;;1.15;;
19747;SDS011;10032;51.386;12.516;2022-09-09T12:48:04;1.83;;;1.30;;
19747;SDS011;10032;51.386;12.516;2022-09-09T12:50:32;3.25;;;1.08;;
19747;SDS011;10032;51.386;12.516;2022-09-09T12:53:33;3.38;;;1.13;;
19747;SDS011;10032;51.386;12.516;2022-09-09T12:56:01;2.35;;;1.10;;
19747;SDS011;10032;51.386;12.516;2022-09-09T12:58:29;1.92;;;1.23;;
19747;SDS011;10032;51.386;12.516;2022-09-09T13:00:58;3.45;;;1.17;;
19747;SDS011;10032;51.386;12.516;2022-09-09T13:03:24;1.85;;;0.75;;
19747;SDS011;10032;51.386;12.516;2022-09-09T13:05:51;1.20;;;0.80;;
19747;SDS011;10032;51.386;12.516;2022-09-09T13:08:18;2.10;;;1.40;;
19747;SDS011;10032;51.386;12.516;2022-09-09T13:13:29;2.75;;;1.02;;
19747;SDS011;10032;51.386;12.516;2022-09-09T13:16:00;2.88;;;1.42;;
19747;SDS011;10032;51.386;12.516;2022-09-09T13:18:28;3.92;;;1.30;;
19747;SDS011;10032;51.386;12.516;2022-09-09T13:20:55;2.65;;;0.90;;
19747;SDS011;10032;51.386;12.516;2022-09-09T13:23:28;1.67;;;0.80;;
19747;SDS011;10032;51.386;12.516;2022-09-09T13:25:57;1.58;;;1.08;;
19747;SDS011;10032;51.386;12.516;2022-09-09T13:28:28;2.22;;;1.00;;
19747;SDS011;10032;51.386;12.516;2022-09-09T13:30:59;1.55;;;0.93;;
19747;SDS011;10032;51.386;12.516;2022-09-09T13:35:59;5.60;;;1.65;;
19747;SDS011;10032;51.386;12.516;2022-09-09T13:38:29;2.63;;;1.67;;
19747;SDS011;10032;51.386;12.516;2022-09-09T13:41:00;1.80;;;1.27;;
19747;SDS011;10032;51.386;12.516;2022-09-09T13:43:50;2.20;;;1.67;;
19747;SDS011;10032;51.386;12.516;2022-09-09T13:49:22;2.28;;;0.80;;
19747;SDS011;10032;51.386;12.516;2022-09-09T13:51:48;0.73;;;0.70;;
19747;SDS011;10032;51.386;12.516;2022-09-09T13:54:18;1.27;;;0.85;;
19747;SDS011;10032;51.386;12.516;2022-09-09T13:56:44;0.82;;;0.60;;
19747;SDS011;10032;51.386;12.516;2022-09-09T13:59:11;2.83;;;0.85;;
19747;SDS011;10032;51.386;12.516;2022-09-09T14:01:38;3.20;;;1.10;;
19747;SDS011;10032;51.386;12.516;2022-09-09T14:04:03;1.63;;;0.85;;
19747;SDS011;10032;51.386;12.516;2022-09-09T14:06:31;1.23;;;1.10;;
19747;SDS011;10032;51.386;12.516;2022-09-09T14:08:57;4.07;;;0.98;;
19747;SDS011;10032;51.386;12.516;2022-09-09T14:11:22;1.73;;;0.93;;
19747;SDS011;10032;51.386;12.516;2022-09-09T14:13:48;1.25;;;1.00;;
19747;SDS011;10032;51.386;12.516;2022-09-09T14:16:15;2.17;;;1.38;;
19747;SDS011;10032;51.386;12.516;2022-09-09T14:18:41;0.60;;;0.60;;
19747;SDS011;10032;51.386;12.516;2022-09-09T14:21:06;2.55;;;0.80;;
19747;SDS011;10032;51.386;12.516;2022-09-09T14:23:33;3.78;;;1.25;;
19747;SDS011;10032;51.386;12.516;2022-09-09T14:26:00;4.45;;;1.23;;
19747;SDS011;10032;51.386;12.516;2022-09-09T14:28:26;2.55;;;0.93;;
19747;SDS011;10032;51.386;12.516;2022-09-09T14:30:51;2.65;;;0.88;;
19747;SDS011;10032;51.386;12.516;2022-09-09T14:33:17;2.75;;;0.80;;
19747;SDS011;10032;51.386;12.516;2022-09-09T14:35:42;1.00;;;0.50;;
19747;SDS011;10032;51.386;12.516;2022-09-09T14:38:09;3.25;;;0.77;;
19747;SDS011;10032;51.386;12.516;2022-09-09T14:40:35;2.45;;;1.20;;
19747;SDS011;10032;51.386;12.516;2022-09-09T14:43:02;2.33;;;0.93;;
19747;SDS011;10032;51.386;12.516;2022-09-09T14:45:28;1.35;;;1.05;;
19747;SDS011;10032;51.386;12.516;2022-09-09T14:47:54;2.08;;;0.70;;
19747;SDS011;10032;51.386;12.516;2022-09-09T14:50:20;1.08;;;0.55;;
19747;SDS011;10032;51.386;12.516;2022-09-09T14:52:46;1.15;;;0.95;;
19747;SDS011;10032;51.386;12.516;2022-09-09T14:55:12;0.50;;;0.50;;
19747;SDS011;10032;51.386;12.516;2022-09-09T14:57:37;1.13;;;0.85;;
19747;SDS011;10032;51.386;12.516;2022-09-09T15:00:04;2.30;;;0.75;;
19747;SDS011;10032;51.386;12.516;2022-09-09T15:02:30;1.05;;;0.80;;
19747;SDS011;10032;51.386;12.516;2022-09-09T15:04:56;1.25;;;0.77;;
19747;SDS011;10032;51.386;12.516;2022-09-09T15:07:25;0.95;;;0.70;;
19747;SDS011;10032;51.386;12.516;2022-09-09T15:09:52;0.63;;;0.57;;
19747;SDS011;10032;51.386;12.516;2022-09-09T15:12:18;0.68;;;0.50;;
19747;SDS011;10032;51.386;12.516;2022-09-09T15:14:48;1.17;;;1.00;;
19747;SDS011;10032;51.386;12.516;2022-09-09T15:17:17;0.68;;;0.68;;
19747;SDS011;10032;51.386;12.516;2022-09-09T15:19:43;1.42;;;0.40;;
19747;SDS011;10032;51.386;12.516;2022-09-09T15:22:08;0.68;;;0.50;;
19747;SDS011;10032;51.386;12.516;2022-09-09T15:24:34;1.30;;;0.80;;
19747;SDS011;10032;51.386;12.516;2022-09-09T15:27:00;1.25;;;0.85;;
19747;SDS011;10032;51.386;12.516;2022-09-09T15:29:27;1.13;;;1.00;;
19747;SDS011;10032;51.386;12.516;2022-09-09T15:31:55;2.00;;;0.80;;
19747;SDS011;10032;51.386;12.516;2022-09-09T15:34:21;0.70;;;0.63;;
19747;SDS011;10032;51.386;12.516;2022-09-09T15:36:46;1.33;;;0.90;;
19747;SDS011;10032;51.386;12.516;2022-09-09T15:39:13;1.48;;;1.00;;
19747;SDS011;10032;51.386;12.516;2022-09-09T15:41:43;2.03;;;0.80;;
19747;SDS011;10032;51.386;12.516;2022-09-09T15:44:11;1.25;;;0.63;;
19747;SDS011;10032;51.386;12.516;2022-09-09T15:46:40;3.83;;;1.35;;
19747;SDS011;10032;51.386;12.516;2022-09-09T15:51:35;1.40;;;0.88;;
19747;SDS011;10032;51.386;12.516;2022-09-09T15:54:05;0.68;;;0.68;;
19747;SDS011;10032;51.386;12.516;2022-09-09T15:56:31;2.33;;;1.15;;
19747;SDS011;10032;51.386;12.516;2022-09-09T15:58:57;0.85;;;0.70;;
19747;SDS011;10032;51.386;12.516;2022-09-09T16:01:24;1.30;;;0.70;;
19747;SDS011;10032;51.386;12.516;2022-09-09T16:03:50;0.70;;;0.70;;
19747;SDS011;10032;51.386;12.516;2022-09-09T16:06:23;4.30;;;0.90;;
19747;SDS011;10032;51.386;12.516;2022-09-09T16:08:50;1.90;;;1.20;;
19747;SDS011;10032;51.386;12.516;2022-09-09T16:11:26;2.08;;;1.65;;
19747;SDS011;10032;51.386;12.516;2022-09-09T16:13:54;1.25;;;0.70;;
19747;SDS011;10032;51.386;12.516;2022-09-09T16:16:21;1.27;;;1.00;;
19747;SDS011;10032;51.386;12.516;2022-09-09T16:18:54;1.52;;;0.68;;
19747;SDS011;10032;51.386;12.516;2022-09-09T16:21:25;1.40;;;1.00;;
19747;SDS011;10032;51.386;12.516;2022-09-09T16:23:54;2.05;;;1.10;;
19747;SDS011;10032;51.386;12.516;2022-09-09T16:26:22;1.08;;;0.80;;
19747;SDS011;10032;51.386;12.516;2022-09-09T16:28:48;0.98;;;0.77;;
19747;SDS011;10032;51.386;12.516;2022-09-09T16:31:15;2.38;;;1.02;;
19747;SDS011;10032;51.386;12.516;2022-09-09T16:33:43;1.35;;;0.90;;
19747;SDS011;10032;51.386;12.516;2022-09-09T16:36:09;1.85;;;1.25;;
19747;SDS011;10032;51.386;12.516;2022-09-09T16:38:37;1.27;;;0.82;;
19747;SDS011;10032;51.386;12.516;2022-09-09T16:41:03;1.85;;;0.93;;
19747;SDS011;10032;51.386;12.516;2022-09-09T16:43:31;3.15;;;1.20;;
19747;SDS011;10032;51.386;12.516;2022-09-09T16:45:56;1.13;;;1.02;;
19747;SDS011;10032;51.386;12.516;2022-09-09T16:48:22;0.90;;;0.90;;
19747;SDS011;10032;51.386;12.516;2022-09-09T16:50:47;1.67;;;0.85;;
19747;SDS011;10032;51.386;12.516;2022-09-09T16:53:14;3.85;;;1.30;;
19747;SDS011;10032;51.386;12.516;2022-09-09T16:55:40;1.17;;;1.05;;
19747;SDS011;10032;51.386;12.516;2022-09-09T16:58:06;2.88;;;1.58;;
19747;SDS011;10032;51.386;12.516;2022-09-09T17:00:33;1.48;;;1.10;;
19747;SDS011;10032;51.386;12.516;2022-09-09T17:02:59;1.48;;;1.08;;
19747;SDS011;10032;51.386;12.516;2022-09-09T17:05:24;1.35;;;0.90;;
19747;SDS011;10032;51.386;12.516;2022-09-09T17:07:50;1.27;;;1.15;;
19747;SDS011;10032;51.386;12.516;2022-09-09T17:10:16;1.02;;;0.77;;
19747;SDS011;10032;51.386;12.516;2022-09-09T17:12:41;1.70;;;1.27;;
19747;SDS011;10032;51.386;12.516;2022-09-09T17:15:07;1.88;;;1.00;;